Time;durP1;ratioP1;P1;durP2;ratioP2;P2;SDS_P1;SDS_P2;PMS_P1;PMS_P2;Temp;Humidity;BMP_temperature;BMP_pressure;BME280_temperature;BME280_humidity;BME280_pressure;Samples;Min_cycle;Max_cycle;Signal;HPM_P1;HPM_P2
2022/03/22 00:01:51;;;;;;;13.83;12.20;;;12.50;31.90;;;15.49;28.65;103197.50;5015324;28;20198;-52
2022/03/22 00:04:18;;;;;;;14.13;11.97;;;12.40;32.10;;;15.46;28.67;103193.31;5015397;28;20199;-55
2022/03/22 00:06:46;;;;;;;14.30;11.83;;;12.40;32.00;;;15.44;28.82;103194.41;5020240;28;20267;-54
2022/03/22 00:09:13;;;;;;;14.63;12.00;;;12.40;32.00;;;15.42;28.81;103196.38;5014726;28;20650;-52
2022/03/22 00:11:40;;;;;;;16.03;11.50;;;12.40;32.00;;;15.38;28.61;103192.38;5014968;28;20547;-56
2022/03/22 00:14:10;;;;;;;12.40;10.93;;;12.40;32.00;;;15.35;28.66;103192.66;5014926;28;20197;-54
2022/03/22 00:16:37;;;;;;;15.57;12.03;;;12.40;32.00;;;15.35;28.65;103196.13;5014295;28;20242;-54
2022/03/22 00:19:25;;;;;;;13.53;12.13;;;12.30;32.00;;;15.32;28.90;103198.22;5014382;28;20240;-53
2022/03/22 00:21:52;;;;;;;14.70;12.80;;;12.30;32.00;;;15.25;28.94;103197.13;5014640;28;20195;-55
2022/03/22 00:24:19;;;;;;;15.47;13.53;;;12.30;32.10;;;15.20;28.97;103191.44;5014674;28;20191;-55
2022/03/22 00:26:46;;;;;;;14.93;12.70;;;12.30;32.10;;;15.17;29.05;103194.34;5015383;28;20690;-54
2022/03/22 00:29:15;;;;;;;14.60;12.20;;;12.30;32.80;;;15.12;29.04;103191.31;5015439;28;20199;-55
2022/03/22 00:31:42;;;;;;;14.60;13.03;;;12.20;32.10;;;15.06;29.10;103194.53;5014977;28;20191;-55
2022/03/22 00:34:13;;;;;;;14.57;12.47;;;12.20;32.00;;;15.03;29.07;103195.66;5014788;28;20621;-55
2022/03/22 00:36:41;;;;;;;17.27;13.27;;;12.20;32.20;;;14.96;29.24;103191.91;5014195;28;20204;-56
2022/03/22 00:39:08;;;;;;;14.43;12.93;;;12.20;32.20;;;14.91;29.27;103181.72;5014364;28;20245;-54
2022/03/22 00:41:35;;;;;;;14.60;12.10;;;12.10;32.10;;;14.89;29.31;103189.00;5014344;28;20195;-53
2022/03/22 00:44:03;;;;;;;15.53;13.20;;;12.10;32.30;;;14.87;29.39;103190.97;5014308;28;20194;-56
2022/03/22 00:46:32;;;;;;;13.67;12.27;;;12.10;32.40;;;14.84;29.71;103193.88;5013611;28;20234;-52
2022/03/22 00:49:01;;;;;;;14.57;12.43;;;12.10;32.70;;;14.83;29.53;103192.19;5014172;28;20275;-53
2022/03/22 00:51:28;;;;;;;13.50;12.10;;;12.00;32.50;;;14.83;29.57;103194.84;5014096;28;20249;-52
2022/03/22 00:53:59;;;;;;;15.63;12.27;;;12.00;32.60;;;14.83;29.46;103189.53;5014159;28;20194;-53
2022/03/22 00:56:27;;;;;;;13.77;11.80;;;12.00;32.70;;;14.84;29.92;103190.38;5013676;28;20195;-54
2022/03/22 01:00:01;;;;;;;15.43;11.93;;;12.00;32.80;;;14.83;29.51;103194.84;5017907;28;20266;-55
2022/03/22 01:01:42;;;;;;;15.20;12.83;;;11.90;32.70;;;14.82;29.54;103192.34;5018406;28;20199;-56
2022/03/22 01:04:10;;;;;;;16.53;13.47;;;11.90;32.80;;;14.82;29.66;103192.34;5019275;28;20205;-53
2022/03/22 01:06:38;;;;;;;15.10;11.90;;;11.90;32.90;;;14.79;29.52;103198.78;5013478;28;20217;-56
2022/03/22 01:09:05;;;;;;;16.27;13.20;;;11.90;32.90;;;14.75;29.80;103193.88;5013569;28;20199;-54
2022/03/22 01:11:32;;;;;;;14.27;12.53;;;11.90;33.20;;;14.68;29.93;103190.97;5013665;28;20187;-56
2022/03/22 01:13:59;;;;;;;13.90;12.53;;;11.80;33.10;;;14.65;29.91;103191.25;5011815;28;20195;-52
2022/03/22 01:16:27;;;;;;;13.90;12.43;;;11.80;33.20;;;14.60;30.04;103193.47;5013301;28;20234;-53
2022/03/22 01:18:55;;;;;;;16.37;12.40;;;11.80;33.30;;;14.58;29.96;103187.50;5013802;28;20195;-53
2022/03/22 01:21:22;;;;;;;13.70;11.60;;;11.80;33.30;;;14.57;30.09;103183.16;5013555;28;20195;-55
2022/03/22 01:23:52;;;;;;;16.13;12.13;;;11.70;33.40;;;14.56;30.03;103186.78;5013317;28;20195;-54
2022/03/22 01:26:19;;;;;;;13.43;12.03;;;11.70;33.50;;;14.54;30.11;103186.09;5013069;28;20202;-53
2022/03/22 01:28:48;;;;;;;15.50;12.77;;;11.70;33.60;;;14.53;30.32;103186.22;5013638;28;20187;-55
2022/03/22 01:31:16;;;;;;;16.27;12.03;;;11.70;33.70;;;14.46;30.37;103179.81;5013632;28;20207;-55
2022/03/22 01:33:43;;;;;;;13.77;12.33;;;11.70;33.60;;;14.44;30.39;103182.59;5013465;28;20198;-54
2022/03/22 01:36:12;;;;;;;13.67;12.17;;;11.60;33.80;;;14.43;30.43;103183.56;5013101;28;20191;-54
2022/03/22 01:38:40;;;;;;;18.23;13.73;;;11.60;34.40;;;14.42;30.37;103179.25;5013478;28;20195;-56
2022/03/22 01:41:07;;;;;;;15.60;13.00;;;11.60;34.00;;;14.41;30.46;103180.22;5013874;28;20191;-52
2022/03/22 01:43:35;;;;;;;14.33;12.57;;;11.60;34.00;;;14.39;30.53;103184.84;5014393;28;20671;-53
2022/03/22 01:46:02;;;;;;;15.03;12.80;;;11.50;34.00;;;14.33;30.79;103185.41;5014149;28;20608;-55
2022/03/22 01:48:30;;;;;;;14.10;12.37;;;11.50;34.10;;;14.27;30.66;103175.31;5013103;28;20574;-53
2022/03/22 01:50:57;;;;;;;15.23;12.90;;;11.50;34.10;;;14.25;30.78;103177.28;5013524;28;20191;-55
2022/03/22 01:53:28;;;;;;;15.57;12.93;;;11.40;34.10;;;14.22;30.83;103169.59;5013263;28;20527;-53
2022/03/22 01:55:55;;;;;;;15.63;12.67;;;11.40;34.40;;;14.20;30.77;103177.69;5013632;28;20549;-55
2022/03/22 01:58:24;;;;;;;12.70;11.10;;;11.40;34.30;;;14.20;30.77;103169.75;5012903;28;20242;-53
2022/03/22 02:05:51;;;;;;;14.67;11.63;;;11.40;34.20;;;14.19;30.50;103178.66;5013433;28;20192;-54
2022/03/22 02:06:35;;;;;;;16.73;12.57;;;11.40;34.60;;;14.16;30.92;103178.09;5012902;28;20223;-55
2022/03/22 02:09:04;;;;;;;14.23;12.70;;;11.30;34.60;;;14.13;31.09;103175.72;5013353;28;20199;-53
2022/03/22 02:11:31;;;;;;;15.77;12.57;;;11.30;34.70;;;14.10;30.92;103174.19;5013399;28;20195;-54
2022/03/22 02:13:59;;;;;;;16.90;12.27;;;11.30;34.80;;;14.07;31.23;103173.63;5013345;28;20191;-54
2022/03/22 02:16:27;;;;;;;13.37;11.30;;;11.30;34.80;;;14.06;31.05;103172.78;5012830;28;20203;-53
2022/03/22 02:18:55;;;;;;;16.03;12.67;;;11.20;34.70;;;14.07;31.14;103173.63;5013717;28;20191;-53
2022/03/22 02:21:27;;;;;;;14.07;12.57;;;11.20;34.90;;;14.06;30.99;103164.00;5013607;28;20662;-54
2022/03/22 02:23:57;;;;;;;15.67;13.73;;;11.20;34.90;;;14.05;31.04;103168.44;5013256;28;20270;-52
2022/03/22 02:26:26;;;;;;;14.07;11.73;;;11.20;34.90;;;14.07;31.34;103168.34;5016707;28;20191;-52
2022/03/22 02:28:53;;;;;;;14.47;12.70;;;11.20;34.90;;;14.06;31.22;103166.66;5016636;28;20646;-53
2022/03/22 02:31:22;;;;;;;16.37;12.17;;;11.20;35.00;;;14.05;31.40;103164.97;5017031;28;20257;-54
2022/03/22 02:33:50;;;;;;;14.13;11.73;;;11.20;35.20;;;14.03;31.13;103166.91;5016729;28;20206;-55
2022/03/22 02:36:17;;;;;;;13.97;12.57;;;11.10;35.00;;;14.00;31.27;103167.22;5016350;28;20201;-54
2022/03/22 02:38:45;;;;;;;15.43;12.77;;;11.10;35.20;;;13.95;31.31;103169.44;5016796;28;20191;-52
2022/03/22 02:41:19;;;;;;;14.77;11.50;;;11.10;35.20;;;13.88;31.25;103165.66;5017004;28;20507;-55
2022/03/22 02:43:48;;;;;;;15.40;13.30;;;11.10;35.10;;;13.87;31.72;103166.63;5016810;28;20190;-56
2022/03/22 02:46:16;;;;;;;14.67;12.87;;;11.10;35.40;;;13.80;31.59;103165.47;5030910;28;20534;-53
2022/03/22 02:48:44;;;;;;;17.80;13.70;;;11.00;35.30;;;13.77;31.77;103165.75;5016405;28;20223;-56
2022/03/22 02:51:13;;;;;;;16.40;13.40;;;11.00;35.50;;;13.72;31.54;103167.97;5016293;28;20198;-54
2022/03/22 02:53:40;;;;;;;14.43;11.93;;;10.90;35.40;;;13.70;31.92;103170.75;5016198;28;20191;-54
2022/03/22 02:56:07;;;;;;;15.67;12.37;;;10.90;35.50;;;13.68;31.83;103162.13;5015876;28;20202;-53
2022/03/22 02:58:36;;;;;;;14.47;13.00;;;10.90;35.60;;;13.69;31.96;103168.25;5016427;28;20187;-55
2022/03/22 03:01:04;;;;;;;13.77;12.27;;;10.80;35.60;;;13.69;31.89;103168.25;5016046;28;20654;-55
2022/03/22 03:03:32;;;;;;;14.53;12.87;;;10.80;36.30;;;13.66;31.88;103161.41;4996529;28;20269;-54
2022/03/22 03:06:00;;;;;;;15.83;12.80;;;10.80;35.80;;;13.64;31.58;103165.16;4995569;28;20246;-54
2022/03/22 03:08:28;;;;;;;15.57;13.10;;;10.80;35.70;;;13.60;31.85;103161.94;4996250;28;20223;-53
2022/03/22 03:10:56;;;;;;;13.20;11.80;;;10.80;35.80;;;13.61;31.74;103165.44;4996078;28;20216;-54
2022/03/22 03:13:23;;;;;;;15.40;12.20;;;10.80;35.70;;;13.63;31.91;103166.13;4996534;28;20198;-56
2022/03/22 03:15:52;;;;;;;14.80;12.17;;;10.80;35.80;;;13.62;31.70;103167.94;4996055;28;20199;-51
2022/03/22 03:18:19;;;;;;;14.03;12.47;;;10.70;35.90;;;13.61;31.83;103170.72;4978708;28;20226;-55
2022/03/22 03:20:47;;;;;;;16.30;12.77;;;10.70;35.90;;;13.60;31.93;103163.78;4996226;28;20188;-55
2022/03/22 03:23:14;;;;;;;16.27;12.43;;;10.70;36.00;;;13.56;32.03;103168.47;4996330;28;20192;-55
2022/03/22 03:25:41;;;;;;;13.77;12.03;;;10.70;36.10;;;13.53;31.78;103166.09;4996016;28;20196;-54
2022/03/22 03:28:09;;;;;;;14.83;13.00;;;10.70;36.00;;;13.49;31.91;103170.81;4995551;28;20216;-53
2022/03/22 03:30:36;;;;;;;15.63;12.63;;;10.70;36.20;;;13.46;32.13;103167.59;4996360;28;20224;-53
2022/03/22 03:33:06;;;;;;;17.27;13.20;;;10.60;36.20;;;13.41;32.34;103165.34;5012134;28;20653;-53
2022/03/22 03:35:33;;;;;;;18.43;13.10;;;10.60;36.30;;;13.39;32.12;103172.59;5015323;28;20209;-54
2022/03/22 03:38:01;;;;;;;14.77;12.80;;;10.60;36.40;;;13.34;32.20;103174.78;5014551;28;20572;-54
2022/03/22 03:41:53;;;;;;;13.27;11.87;;;10.50;36.30;;;13.36;31.85;103170.19;5015332;28;20198;-54
2022/03/22 03:43:15;;;;;;;15.53;13.50;;;10.50;36.40;;;13.36;32.25;103172.84;5014911;28;20191;-55
2022/03/22 03:48:29;;;;;;;16.90;12.50;;;10.50;36.60;;;13.30;32.63;103178.69;5015715;28;20211;-54
2022/03/22 03:50:57;;;;;;;15.70;13.10;;;10.50;36.60;;;13.29;32.59;103176.16;5015881;28;20187;-54
2022/03/22 03:53:24;;;;;;;15.63;13.03;;;10.50;36.70;;;13.29;32.40;103177.00;5016203;28;20684;-53
2022/03/22 03:55:51;;;;;;;13.83;12.30;;;10.50;36.80;;;13.28;32.38;103170.03;5015811;28;20206;-55
2022/03/22 03:58:19;;;;;;;17.33;12.70;;;10.40;36.70;;;13.30;32.43;103178.69;5015180;28;20589;-54
2022/03/22 04:00:46;;;;;;;13.73;12.27;;;10.40;36.70;;;13.31;32.49;103175.03;5015080;28;20218;-53
2022/03/22 04:03:14;;;;;;;13.23;11.53;;;10.40;36.70;;;13.34;32.57;103180.09;5015224;28;20233;-51
2022/03/22 04:05:43;;;;;;;13.40;11.70;;;10.40;36.70;;;13.35;32.61;103180.94;5014967;28;20218;-53
2022/03/22 04:08:29;;;;;;;15.70;12.63;;;10.40;36.70;;;13.33;32.34;103183.72;5014720;28;20226;-54
2022/03/22 04:10:56;;;;;;;15.30;11.83;;;10.40;36.70;;;13.31;32.17;103185.63;5014935;28;20203;-53
2022/03/22 04:13:24;;;;;;;17.10;12.63;;;10.40;36.80;;;13.31;32.31;103185.63;5014987;28;20618;-55
2022/03/22 04:15:52;;;;;;;15.17;11.67;;;10.40;36.90;;;13.28;32.41;103185.91;5014539;28;20270;-56
2022/03/22 04:18:19;;;;;;;13.10;11.33;;;10.40;36.90;;;13.27;32.38;103186.88;5014584;28;20282;-52
2022/03/22 04:20:49;;;;;;;14.20;11.97;;;10.40;36.80;;;13.29;32.67;103197.31;5014760;28;20213;-54
2022/03/22 04:23:53;;;;;;;16.73;12.10;;;10.40;36.90;;;13.27;32.37;103189.50;5014889;28;20580;-55
2022/03/22 04:26:42;;;;;;;13.57;11.57;;;10.40;37.10;;;13.27;32.72;103184.22;5014595;28;20226;-55
2022/03/22 04:34:47;;;;;;;14.57;12.30;;;10.40;37.00;;;13.30;32.57;103180.47;5014488;28;20503;-52
2022/03/22 04:37:16;;;;;;;15.90;12.47;;;10.40;37.00;;;13.30;32.24;103183.97;5013884;28;20215;-53
2022/03/22 04:39:46;;;;;;;13.63;11.90;;;10.40;37.00;;;13.28;32.33;103183.28;5014582;28;20200;-55
2022/03/22 04:42:14;;;;;;;16.13;14.00;;;10.30;36.90;;;13.25;32.61;103185.31;5013436;28;20195;-54
2022/03/22 04:44:42;;;;;;;16.93;13.40;;;10.30;37.10;;;13.18;32.66;103190.31;5012860;28;20195;-55
2022/03/22 04:47:10;;;;;;;14.83;13.13;;;10.30;37.10;;;13.13;33.02;103183.72;5013399;28;20211;-54
2022/03/22 04:49:38;;;;;;;15.57;13.00;;;10.30;37.30;;;13.07;32.87;103193.03;5012998;28;20215;-52
2022/03/22 04:57:38;;;;;;;13.83;11.83;;;10.20;37.50;;;13.02;32.85;103189.91;5013518;28;20206;-53
2022/03/22 05:00:07;;;;;;;13.17;11.27;;;10.10;37.30;;;13.06;32.92;103191.34;5013652;28;20205;-55
2022/03/22 05:02:35;;;;;;;17.57;12.93;;;10.10;37.50;;;13.07;32.93;103194.84;5013897;28;20538;-51
2022/03/22 05:05:02;;;;;;;14.13;12.27;;;10.10;37.60;;;13.07;32.78;103189.56;5013833;28;20183;-54
2022/03/22 05:07:30;;;;;;;17.03;13.10;;;10.10;37.60;;;13.08;32.87;103199.13;5013655;28;20753;-54
2022/03/22 05:09:58;;;;;;;14.97;12.73;;;10.10;37.70;;;13.07;32.87;103203.63;5014080;28;20210;-53
2022/03/22 05:12:26;;;;;;;13.90;12.07;;;10.10;37.60;;;13.08;32.79;103205.28;5013817;28;20199;-54
2022/03/22 05:14:53;;;;;;;13.40;11.97;;;10.10;37.70;;;13.11;32.88;103198.88;5014039;28;20201;-53
2022/03/22 05:17:23;;;;;;;17.90;14.50;;;10.10;38.30;;;13.12;33.18;103205.88;5013338;28;20215;-52
2022/03/22 05:19:51;;;;;;;15.03;13.43;;;10.10;37.70;;;13.11;32.92;103210.31;5013904;28;20194;-53
2022/03/22 05:22:19;;;;;;;14.80;12.93;;;10.10;37.70;;;13.11;32.73;103210.31;5014485;28;20203;-53
2022/03/22 05:24:46;;;;;;;16.73;13.53;;;10.10;37.70;;;13.10;32.80;103203.34;5014130;28;20609;-53
2022/03/22 05:27:17;;;;;;;15.47;12.83;;;10.10;37.70;;;13.07;33.05;103206.25;5014334;28;20302;-53
2022/03/22 05:29:44;;;;;;;15.60;12.67;;;10.10;37.70;;;13.08;32.85;103221.13;5014292;28;20211;-53
2022/03/22 05:32:12;;;;;;;15.17;13.30;;;10.10;37.70;;;13.07;32.88;103214.19;5014551;28;20282;-53
2022/03/22 05:34:39;;;;;;;15.87;13.27;;;10.10;37.80;;;13.06;33.04;103217.78;5014759;28;20195;-53
2022/03/22 05:37:07;;;;;;;14.77;12.53;;;10.10;37.80;;;13.06;32.84;103217.78;5014055;28;20218;-53
2022/03/22 05:39:35;;;;;;;15.20;13.17;;;10.10;37.80;;;13.08;33.32;103215.00;5014724;28;20209;-53
2022/03/22 05:42:04;;;;;;;15.37;12.50;;;10.10;37.90;;;13.09;32.85;103217.53;5014587;28;20215;-52
2022/03/22 05:44:35;;;;;;;16.07;13.33;;;10.10;37.80;;;13.08;33.42;103215.84;5014574;28;20199;-53
2022/03/22 05:47:03;;;;;;;14.00;12.37;;;10.10;37.90;;;13.10;33.09;103213.91;5014353;28;20213;-52
2022/03/22 05:49:33;;;;;;;17.30;12.57;;;10.10;37.90;;;13.13;32.93;103220.75;5014159;28;20226;-53
2022/03/22 05:52:00;;;;;;;18.00;12.87;;;10.10;37.90;;;13.15;33.03;103218.81;5013695;28;20187;-51
2022/03/22 05:54:27;;;;;;;14.77;12.73;;;10.20;38.00;;;13.17;32.67;103215.06;5013665;28;20219;-53
2022/03/22 05:56:55;;;;;;;17.67;13.43;;;10.20;38.00;;;13.21;33.06;103226.22;5013195;28;20215;-52
2022/03/22 05:59:22;;;;;;;16.67;13.00;;;10.20;38.00;;;13.23;32.89;103225.13;5014473;28;20709;-52
2022/03/22 06:01:51;;;;;;;17.67;13.47;;;10.20;37.90;;;13.26;32.73;103224.88;5017516;28;20221;-52
2022/03/22 06:04:20;;;;;;;22.03;13.73;;;10.20;38.10;;;13.30;32.93;103230.72;5017631;28;20195;-53
2022/03/22 06:06:47;;;;;;;16.83;13.07;;;10.30;38.10;;;13.32;33.01;103228.78;5032613;28;20290;-52
2022/03/22 06:09:15;;;;;;;15.43;13.40;;;10.30;37.90;;;13.34;33.07;103221.56;5015018;28;20233;-63
2022/03/22 06:11:43;;;;;;;15.33;13.70;;;10.30;37.90;;;13.36;32.88;103230.22;5016228;28;20252;-55
2022/03/22 06:14:10;;;;;;;15.93;12.93;;;10.30;37.90;;;13.37;33.00;103232.72;5016912;28;20218;-53
2022/03/22 06:16:37;;;;;;;18.77;13.57;;;10.40;38.50;;;13.37;32.62;103235.38;5016368;28;20716;-52
2022/03/22 06:19:06;;;;;;;15.10;12.73;;;10.40;37.90;;;13.38;32.64;103234.38;5016648;28;20184;-53
2022/03/22 06:21:34;;;;;;;19.23;14.50;;;10.40;37.80;;;13.43;32.94;103237.47;5017591;28;20221;-52
2022/03/22 06:24:01;;;;;;;14.43;12.90;;;10.40;37.90;;;13.43;32.64;103237.47;5016538;28;20191;-52
2022/03/22 06:26:28;;;;;;;16.00;13.17;;;10.40;37.70;;;13.43;32.84;103240.13;5016576;28;20278;-55
2022/03/22 06:28:55;;;;;;;16.43;13.40;;;10.40;37.80;;;13.44;32.87;103238.31;5017180;28;20680;-52
2022/03/22 06:31:23;;;;;;;17.47;13.33;;;10.40;37.70;;;13.43;32.72;103248.06;5017717;28;20670;-53
2022/03/22 06:33:50;;;;;;;17.30;13.80;;;10.50;37.80;;;13.42;32.70;103251.69;5017234;28;20198;-54
2022/03/22 06:36:19;;;;;;;15.77;13.07;;;10.50;37.70;;;13.39;32.83;103248.47;5016241;28;20210;-54
2022/03/22 06:38:46;;;;;;;16.40;14.20;;;10.50;38.30;;;13.39;32.86;103241.38;5016531;28;20642;-53
2022/03/22 06:41:14;;;;;;;17.83;14.67;;;10.50;37.80;;;13.36;32.80;103246.91;5017670;28;20199;-54
2022/03/22 06:43:41;;;;;;;16.33;13.13;;;10.50;37.70;;;13.32;32.75;103245.50;5018789;28;20223;-56
2022/03/22 06:46:08;;;;;;;17.60;12.70;;;10.50;37.60;;;13.31;32.83;103253.59;5018964;28;20199;-57
2022/03/22 06:48:36;;;;;;;14.13;12.60;;;10.40;37.50;;;13.32;32.76;103255.25;5019111;28;20211;-54
2022/03/22 06:51:04;;;;;;;14.80;13.03;;;10.40;37.60;;;13.32;32.91;103245.50;5016635;28;20288;-53
2022/03/22 06:53:32;;;;;;;15.57;12.93;;;10.40;37.80;;;13.33;32.85;103255.13;5017399;28;20199;-52
2022/03/22 06:56:00;;;;;;;15.50;13.20;;;10.40;38.30;;;13.33;33.08;103251.66;5017006;28;20196;-51
2022/03/22 06:58:29;;;;;;;18.30;14.23;;;10.50;37.70;;;13.38;32.74;103252.09;5017572;28;20302;-55
2022/03/22 07:00:56;;;;;;;16.23;13.07;;;10.50;37.80;;;13.41;32.86;103255.31;5016536;28;20616;-52
2022/03/22 07:03:24;;;;;;;16.10;12.67;;;10.60;37.80;;;13.47;32.80;103257.44;5016418;28;20199;-52
2022/03/22 07:05:52;;;;;;;17.30;13.63;;;10.60;37.70;;;13.61;32.81;103255.41;5014938;28;20274;-53
2022/03/22 07:08:19;;;;;;;17.97;14.47;;;10.60;37.70;;;13.83;32.79;103256.06;5009635;28;20276;-52
2022/03/22 07:11:49;;;;;;;16.80;14.10;;;10.80;38.00;;;14.12;32.34;103264.13;5013894;28;20219;-54
2022/03/22 07:13:50;;;;;;;18.60;14.37;;;10.90;38.00;;;14.53;32.00;103266.56;5010433;28;20192;-55
2022/03/22 07:16:19;;;;;;;20.00;16.17;;;11.20;38.00;;;14.94;31.74;103265.47;5012763;28;20203;-59
2022/03/22 07:18:46;;;;;;;18.03;14.77;;;11.50;37.90;;;15.36;31.31;103265.94;5009961;28;20258;-56
2022/03/22 07:21:14;;;;;;;15.27;13.67;;;11.80;37.60;;;15.75;30.72;103270.22;5016306;28;20298;-52
2022/03/22 07:23:42;;;;;;;17.40;14.23;;;12.10;37.20;;;16.15;30.08;103275.19;5010047;28;20199;-53
2022/03/22 07:26:11;;;;;;;17.87;13.87;;;12.50;36.10;;;16.61;29.69;103271.56;5002369;28;20230;-55
2022/03/22 07:28:40;;;;;;;16.80;13.20;;;12.90;35.80;;;17.05;28.92;103273.28;4996753;28;20243;-52
2022/03/22 07:31:07;;;;;;;18.17;13.47;;;13.30;35.00;;;17.44;28.67;103271.91;4998890;28;20196;-53
2022/03/22 07:33:36;;;;;;;17.53;14.43;;;13.70;34.10;;;17.86;27.44;103276.47;5014244;28;20191;-54
2022/03/22 07:36:04;;;;;;;15.37;13.70;;;14.10;33.10;;;18.24;27.21;103270.59;5011472;28;20256;-55
2022/03/22 07:38:32;;;;;;;15.77;14.17;;;14.50;32.50;;;18.56;26.42;103269.88;5014926;28;20265;-54
2022/03/22 07:40:59;;;;;;;15.17;13.23;;;14.90;31.60;;;18.77;26.27;103279.09;5013872;28;20297;-54
2022/03/22 07:43:29;;;;;;;16.93;15.20;;;15.20;31.10;;;19.11;25.93;103275.41;4997309;28;20191;-54
2022/03/22 07:46:04;;;;;;;16.10;13.97;;;15.60;30.40;;;19.52;25.63;103285.03;5011962;28;20195;-56
2022/03/22 07:48:31;;;;;;;15.83;13.63;;;15.90;30.10;;;19.88;25.40;103282.75;4995485;28;20242;-53
2022/03/22 07:53:45;;;;;;;17.60;15.70;;;16.50;29.50;;;20.46;24.64;103279.66;4994737;28;20230;-57
2022/03/22 07:56:13;;;;;;;15.13;13.53;;;16.80;28.80;;;20.78;24.34;103276.75;5000649;28;20219;-56
2022/03/22 07:58:41;;;;;;;15.97;14.27;;;17.10;28.50;;;21.17;24.00;103279.28;5005438;28;20306;-53
2022/03/22 08:01:09;;;;;;;17.73;14.77;;;17.40;28.60;;;21.66;23.40;103277.75;5004263;28;20566;-56
2022/03/22 08:03:36;;;;;;;16.57;14.73;;;17.70;28.30;;;22.11;22.93;103284.78;5006467;28;20225;-55
2022/03/22 08:06:07;;;;;;;16.93;14.77;;;17.90;27.90;;;22.44;22.53;103285.97;5011213;28;20551;-55
2022/03/22 08:08:37;;;;;;;17.90;15.97;;;18.20;27.40;;;22.56;22.01;103289.81;5008569;28;20658;-54
2022/03/22 08:11:07;;;;;;;15.73;14.00;;;18.50;26.80;;;22.63;22.34;103295.31;5002187;28;20214;-54
2022/03/22 08:13:44;;;;;;;15.73;14.03;;;18.70;27.00;;;22.84;22.21;103293.44;5008950;28;20689;-56
2022/03/22 08:16:18;;;;;;;16.60;14.87;;;18.90;26.90;;;23.17;21.95;103292.91;5006415;28;20625;-56
2022/03/22 08:18:45;;;;;;;17.97;14.00;;;19.10;26.50;;;23.50;21.58;103288.63;5008272;28;20194;-55
2022/03/22 08:21:13;;;;;;;18.40;16.60;;;19.40;26.80;;;23.62;21.40;103297.78;5015551;28;20239;-53
2022/03/22 08:23:41;;;;;;;19.27;17.27;;;19.60;26.30;;;23.71;21.22;103299.28;5010732;28;20238;-53
2022/03/22 08:26:08;;;;;;;15.90;14.13;;;19.80;25.90;;;23.87;21.37;103293.56;5007162;28;20214;-54
2022/03/22 08:28:37;;;;;;;27.40;24.47;;;20.00;26.10;;;24.20;20.95;103293.72;5005978;28;20223;-53
2022/03/22 08:31:05;;;;;;;18.70;16.53;;;20.30;26.20;;;24.56;20.18;103299.63;5016512;28;20198;-56
2022/03/22 08:33:33;;;;;;;17.10;15.53;;;20.50;25.40;;;24.81;20.06;103295.38;4996450;28;20203;-55
2022/03/22 08:36:00;;;;;;;18.73;15.53;;;20.70;25.40;;;25.12;20.65;103289.34;5013031;28;20195;-56
2022/03/22 08:38:30;;;;;;;17.27;15.43;;;20.90;25.40;;;25.44;19.62;103293.06;5011589;28;20266;-56
2022/03/22 08:40:57;;;;;;;16.00;14.50;;;21.10;25.20;;;25.81;19.93;103295.06;5005882;28;20210;-58
2022/03/22 08:43:25;;;;;;;18.07;16.13;;;21.30;25.00;;;26.14;19.53;103286.84;4999187;28;20210;-55
2022/03/22 08:45:54;;;;;;;21.23;15.97;;;21.50;24.90;;;26.46;19.61;103280.41;5000754;28;20192;-56
2022/03/22 08:48:24;;;;;;;16.43;14.93;;;21.70;25.20;;;26.82;18.63;103280.59;4998597;28;20241;-57
2022/03/22 08:50:52;;;;;;;16.83;15.13;;;22.00;25.00;;;27.23;18.90;103279.19;4999324;28;20231;-57
2022/03/22 08:53:21;;;;;;;17.90;16.30;;;22.30;24.50;;;27.61;17.69;103285.28;4998851;28;20211;-56
2022/03/22 08:55:51;;;;;;;23.67;19.63;;;22.60;23.80;;;27.96;17.79;103278.19;5006508;28;20215;-56
2022/03/22 08:58:19;;;;;;;17.10;15.50;;;22.80;24.20;;;28.35;17.57;103284.16;5005137;28;20765;-55
2022/03/22 09:00:56;;;;;;;17.63;15.83;;;23.20;24.10;;;28.73;17.12;103279.22;5000362;28;20290;-54
2022/03/22 09:03:31;;;;;;;20.27;18.30;;;23.50;23.50;;;28.94;16.89;103277.81;5010670;28;20534;-55
2022/03/22 09:06:08;;;;;;;20.43;18.33;;;23.70;22.90;;;29.04;16.52;103281.59;5005852;28;20237;-56
2022/03/22 09:08:39;;;;;;;18.30;16.47;;;24.00;22.70;;;29.28;16.39;103277.84;5002506;28;20320;-57
2022/03/22 09:11:18;;;;;;;17.83;15.93;;;24.20;22.30;;;29.48;16.21;103278.28;5004840;28;20744;-58
2022/03/22 09:13:54;;;;;;;21.77;15.47;;;24.40;22.80;;;29.88;16.64;103285.69;5001459;28;20700;-56
2022/03/22 09:16:27;;;;;;;16.87;15.27;;;24.60;22.50;;;30.19;15.68;103274.31;5008983;28;20612;-56
2022/03/22 09:19:07;;;;;;;17.40;15.80;;;24.80;22.10;;;30.52;16.20;103269.00;5007519;28;20721;-56
2022/03/22 09:21:43;;;;;;;17.70;14.90;;;25.10;22.40;;;31.00;15.37;103281.22;5003914;28;20293;-57
2022/03/22 09:24:15;;;;;;;15.67;14.17;;;25.30;22.30;;;31.47;15.47;103266.13;5007011;28;20342;-57
2022/03/22 09:26:55;;;;;;;15.83;14.33;;;25.60;22.40;;;32.01;15.42;103262.44;5003302;28;20215;-57
2022/03/22 09:29:32;;;;;;;17.57;16.07;;;26.00;22.00;;;32.37;14.91;103273.69;5001347;28;20310;-54
2022/03/22 09:32:04;;;;;;;17.27;15.77;;;26.30;21.70;;;32.70;14.15;103254.38;5000260;28;20198;-56
2022/03/22 09:34:33;;;;;;;18.23;15.70;;;26.60;20.90;;;32.92;14.21;103263.28;4997968;28;20192;-57
2022/03/22 09:37:00;;;;;;;17.93;15.93;;;26.90;20.80;;;33.18;14.56;103258.81;4998592;28;20835;-57
2022/03/22 09:39:30;;;;;;;18.73;16.83;;;27.10;20.70;;;33.36;14.27;103259.19;4995708;28;20211;-58
2022/03/22 09:42:00;;;;;;;21.70;18.67;;;27.40;20.40;;;33.54;13.48;103254.38;4998102;28;20202;-57
2022/03/22 09:44:29;;;;;;;19.40;17.40;;;27.60;19.60;;;33.71;13.42;103254.97;4999087;28;20210;-56
2022/03/22 09:46:57;;;;;;;19.67;17.77;;;27.70;19.70;;;33.80;13.32;103264.31;5002300;28;20230;-57
2022/03/22 09:49:27;;;;;;;20.07;18.20;;;27.90;19.50;;;33.96;12.99;103253.13;4998086;28;20214;-58
2022/03/22 09:51:58;;;;;;;18.00;16.30;;;28.10;18.70;;;34.08;13.03;103247.44;5001052;28;20643;-58
2022/03/22 09:54:25;;;;;;;23.23;20.83;;;28.20;19.30;;;34.28;12.83;103257.59;4998732;28;20199;-58
2022/03/22 09:56:53;;;;;;;20.73;18.73;;;28.40;18.70;;;34.36;12.69;103255.13;4999620;28;20769;-58
2022/03/22 09:59:20;;;;;;;21.20;19.10;;;28.60;18.60;;;34.50;13.12;103258.94;4999199;28;20200;-59
2022/03/22 10:01:48;;;;;;;21.70;19.50;;;28.80;18.80;;;34.76;12.52;103256.25;5004074;28;21771;-54
2022/03/22 10:04:16;;;;;;;19.50;17.73;;;29.00;18.60;;;35.02;12.25;103255.06;4998332;28;20214;-59
2022/03/22 10:06:57;;;;;;;20.43;18.60;;;29.20;18.20;;;35.22;12.88;103244.09;4999930;28;20214;-57
2022/03/22 10:09:31;;;;;;;20.67;18.97;;;29.40;18.10;;;35.49;11.66;103249.19;5003225;28;20211;-61
2022/03/22 10:11:58;;;;;;;20.47;18.17;;;29.60;17.50;;;35.59;12.23;103244.50;5001033;28;20723;-57
2022/03/22 10:14:35;;;;;;;21.05;18.75;;;29.80;18.40;;;35.87;12.01;103246.53;5008741;28;20260;-59
2022/03/22 10:17:19;;;;;;;21.13;19.02;;;30.10;17.70;;;36.11;11.45;103251.38;5006403;28;20975;-58
2022/03/22 10:19:51;;;;;;;21.85;19.77;;;30.20;17.20;;;36.23;11.76;103243.59;5008990;28;20191;-57
2022/03/22 10:22:24;;;;;;;21.25;19.10;;;30.40;17.30;;;36.42;11.74;103241.78;5001856;28;20199;-57
2022/03/22 10:24:58;;;;;;;21.58;19.67;;;30.50;17.30;;;36.64;11.74;103239.41;5005839;28;20401;-58
2022/03/22 10:27:27;;;;;;;22.10;19.83;;;30.70;17.20;;;36.81;10.99;103242.53;4999824;28;20330;-60
2022/03/22 10:30:17;;;;;;;32.13;28.92;;;30.80;17.10;;;36.95;11.45;103240.75;5006067;28;20226;-56